TRA3Q EHAM-LEPA
Flight info
| Callsign | TRA3Q |
|---|---|
| Flight time | N/A |
| Altitude | 35000 |
| Route | WOODY N872 CIV DCT KOVIN DCT DUCRA UM728 RESMI UN857 DISAK DCT DIRMO DCT VALKU DCT ATSUP DCT MINSO DCT DEGOL DCT PPG DCT ALBER DCT GIR DCT NENDA P84 LORES |
| Aircraft | B738/M-SDE2E3FGHIJ1RWXY/LB1 |
Departure
| Time | 2026-05-07 17:03 |
|---|---|
| Airport | Amsterdam Airport Schiphol (EHAM) |
Arrival
| Time | N/A |
|---|---|
| Airport | Palma de Mallorca Airport (LEPA) |
| Time | Latitude | Longitude | Altitude | Speed | Heading |
|---|---|---|---|---|---|
| 2026-05-07 16:03 | 52.30506 | 4.76806 | -2 ft | 0 kts | 314° |
| 2026-05-07 16:51 | 52.30504 | 4.76809 | -2 ft | 2 kts | 313° |
| 2026-05-07 16:51 | 52.30492 | 4.76830 | -2 ft | 3 kts | 307° |
| 2026-05-07 16:52 | 52.30481 | 4.76858 | -2 ft | 3 kts | 298° |
| 2026-05-07 16:52 | 52.30473 | 4.76887 | -2 ft | 3 kts | 287° |
| 2026-05-07 16:52 | 52.30468 | 4.76919 | -2 ft | 3 kts | 275° |
| 2026-05-07 16:52 | 52.30468 | 4.76952 | -2 ft | 3 kts | 259° |
| 2026-05-07 16:53 | 52.30473 | 4.76982 | -2 ft | 3 kts | 241° |
| 2026-05-07 16:53 | 52.30478 | 4.76995 | -2 ft | 2 kts | 236° |
| 2026-05-07 16:53 | 52.30470 | 4.76981 | -2 ft | 3 kts | 228° |
| 2026-05-07 16:53 | 52.30459 | 4.76962 | -2 ft | 1 kts | 226° |
| 2026-05-07 16:55 | 52.30459 | 4.76961 | -2 ft | 0 kts | 226° |
| 2026-05-07 16:57 | 52.30455 | 4.76956 | -2 ft | 2 kts | 227° |
| 2026-05-07 16:57 | 52.30441 | 4.76913 | -2 ft | 8 kts | 242° |
| 2026-05-07 16:57 | 52.30403 | 4.76805 | -2 ft | 14 kts | 239° |
| 2026-05-07 16:58 | 52.30340 | 4.76641 | -2 ft | 20 kts | 238° |
| 2026-05-07 16:58 | 52.30256 | 4.76425 | -2 ft | 25 kts | 237° |
| 2026-05-07 16:58 | 52.30163 | 4.76193 | -2 ft | 24 kts | 237° |
| 2026-05-07 16:58 | 52.30082 | 4.75968 | -2 ft | 23 kts | 239° |
| 2026-05-07 16:59 | 52.30000 | 4.75753 | -2 ft | 22 kts | 237° |
| 2026-05-07 16:59 | 52.29918 | 4.75546 | -2 ft | 21 kts | 237° |
| 2026-05-07 16:59 | 52.29842 | 4.75342 | -2 ft | 21 kts | 243° |
| 2026-05-07 16:59 | 52.29874 | 4.75137 | -2 ft | 20 kts | 310° |
| 2026-05-07 17:00 | 52.29965 | 4.74967 | -2 ft | 20 kts | 310° |
| 2026-05-07 17:00 | 52.30052 | 4.74802 | -1 ft | 19 kts | 312° |
| 2026-05-07 17:00 | 52.30138 | 4.74645 | 9 ft | 18 kts | 311° |
| 2026-05-07 17:00 | 52.30220 | 4.74492 | 9 ft | 18 kts | 311° |
| 2026-05-07 17:01 | 52.30301 | 4.74342 | 5 ft | 19 kts | 311° |
| 2026-05-07 17:01 | 52.30370 | 4.74178 | -2 ft | 15 kts | 276° |
| 2026-05-07 17:01 | 52.30325 | 4.74040 | -2 ft | 14 kts | 221° |
| 2026-05-07 17:01 | 52.30248 | 4.73948 | -2 ft | 13 kts | 216° |
| 2026-05-07 17:02 | 52.30187 | 4.73850 | -3 ft | 11 kts | 258° |
| 2026-05-07 17:02 | 52.30217 | 4.73744 | -4 ft | 11 kts | 341° |
| 2026-05-07 17:02 | 52.30295 | 4.73748 | -5 ft | 12 kts | 3° |
| 2026-05-07 17:02 | 52.30452 | 4.73762 | -4 ft | 50 kts | 3° |
| 2026-05-07 17:03 | 52.31040 | 4.73815 | -1 ft | 121 kts | 4° |
| 2026-05-07 17:03 | 52.32079 | 4.73907 | 128 ft | 165 kts | 4° |
| 2026-05-07 17:03 | 52.33215 | 4.73988 | 900 ft | 164 kts | 3° |
| 2026-05-07 17:03 | 52.34321 | 4.74069 | 1822 ft | 160 kts | 13° |
| 2026-05-07 17:04 | 52.35380 | 4.74879 | 2262 ft | 180 kts | 33° |
| 2026-05-07 17:04 | 52.36523 | 4.75974 | 2736 ft | 200 kts | 28° |
| 2026-05-07 17:04 | 52.37598 | 4.77491 | 3048 ft | 218 kts | 60° |
| 2026-05-07 17:04 | 52.37916 | 4.79949 | 3505 ft | 229 kts | 96° |
| 2026-05-07 17:05 | 52.37584 | 4.82493 | 4275 ft | 231 kts | 107° |
| 2026-05-07 17:05 | 52.36722 | 4.84678 | 5048 ft | 233 kts | 144° |
| 2026-05-07 17:05 | 52.35210 | 4.85488 | 5740 ft | 239 kts | 181° |
| 2026-05-07 17:05 | 52.33507 | 4.85081 | 6124 ft | 259 kts | 184° |
| 2026-05-07 17:06 | 52.31699 | 4.85016 | 6888 ft | 262 kts | 180° |
| 2026-05-07 17:06 | 52.29871 | 4.84955 | 7707 ft | 263 kts | 181° |
| 2026-05-07 17:06 | 52.28022 | 4.84886 | 8472 ft | 269 kts | 181° |
| 2026-05-07 17:06 | 52.26121 | 4.84830 | 9143 ft | 277 kts | 182° |
| 2026-05-07 17:07 | 52.24188 | 4.84777 | 9959 ft | 280 kts | 181° |
| 2026-05-07 17:07 | 52.22201 | 4.84732 | 10440 ft | 294 kts | 181° |
| 2026-05-07 17:07 | 52.20065 | 4.84687 | 10617 ft | 318 kts | 181° |
| 2026-05-07 17:07 | 52.17805 | 4.84640 | 11165 ft | 325 kts | 182° |
| 2026-05-07 17:08 | 52.15545 | 4.84593 | 12013 ft | 326 kts | 181° |
| 2026-05-07 17:08 | 52.13267 | 4.84544 | 12797 ft | 328 kts | 181° |
| 2026-05-07 17:08 | 52.10969 | 4.84495 | 13495 ft | 333 kts | 182° |
| 2026-05-07 17:08 | 52.08629 | 4.84445 | 14127 ft | 339 kts | 181° |
| 2026-05-07 17:09 | 52.06268 | 4.84396 | 14835 ft | 340 kts | 181° |
| 2026-05-07 17:09 | 52.03885 | 4.84349 | 15456 ft | 345 kts | 181° |
| 2026-05-07 17:09 | 52.01505 | 4.83887 | 16068 ft | 346 kts | 200° |
| 2026-05-07 17:09 | 51.99321 | 4.82276 | 16789 ft | 346 kts | 207° |
| 2026-05-07 17:10 | 51.97159 | 4.80518 | 17444 ft | 350 kts | 207° |
| 2026-05-07 17:10 | 51.94960 | 4.78754 | 18033 ft | 354 kts | 207° |
| 2026-05-07 17:10 | 51.92727 | 4.76992 | 18586 ft | 359 kts | 206° |
| 2026-05-07 17:10 | 51.90470 | 4.75221 | 19161 ft | 362 kts | 206° |
| 2026-05-07 17:11 | 51.88199 | 4.73449 | 19762 ft | 363 kts | 206° |
| 2026-05-07 17:11 | 51.85916 | 4.71669 | 20329 ft | 366 kts | 206° |
| 2026-05-07 17:11 | 51.83609 | 4.69871 | 20864 ft | 369 kts | 206° |
| 2026-05-07 17:11 | 51.81285 | 4.68059 | 21424 ft | 372 kts | 206° |
| 2026-05-07 17:12 | 51.78946 | 4.66237 | 21973 ft | 374 kts | 206° |
| 2026-05-07 17:12 | 51.76595 | 4.64406 | 22527 ft | 377 kts | 207° |
| 2026-05-07 17:12 | 51.74222 | 4.62559 | 23046 ft | 380 kts | 207° |
| 2026-05-07 17:12 | 51.71834 | 4.60703 | 23568 ft | 382 kts | 207° |
| 2026-05-07 17:13 | 51.69428 | 4.58835 | 24025 ft | 384 kts | 207° |
| 2026-05-07 17:13 | 51.67018 | 4.56965 | 24473 ft | 386 kts | 207° |
| 2026-05-07 17:13 | 51.64588 | 4.55084 | 24907 ft | 388 kts | 207° |
| 2026-05-07 17:13 | 51.62176 | 4.53218 | 25339 ft | 391 kts | 207° |
| 2026-05-07 17:14 | 51.59718 | 4.51318 | 25737 ft | 393 kts | 207° |
| 2026-05-07 17:14 | 51.57248 | 4.49411 | 26150 ft | 395 kts | 207° |
| 2026-05-07 17:14 | 51.54764 | 4.47494 | 26555 ft | 397 kts | 207° |
| 2026-05-07 17:14 | 51.52264 | 4.45568 | 26954 ft | 399 kts | 207° |
| 2026-05-07 17:15 | 51.49750 | 4.43633 | 27344 ft | 402 kts | 207° |
| 2026-05-07 17:15 | 51.47226 | 4.41691 | 27749 ft | 403 kts | 207° |
| 2026-05-07 17:15 | 51.44688 | 4.39742 | 28147 ft | 405 kts | 207° |
| 2026-05-07 17:15 | 51.42140 | 4.37791 | 28520 ft | 407 kts | 207° |
| 2026-05-07 17:16 | 51.39573 | 4.35832 | 28882 ft | 410 kts | 206° |
| 2026-05-07 17:16 | 51.36983 | 4.33891 | 29239 ft | 412 kts | 206° |
| 2026-05-07 17:16 | 51.34376 | 4.31951 | 29594 ft | 414 kts | 206° |
| 2026-05-07 17:16 | 51.31757 | 4.30004 | 29943 ft | 416 kts | 206° |
| 2026-05-07 17:17 | 51.29127 | 4.28025 | 30242 ft | 418 kts | 207° |
| 2026-05-07 17:17 | 51.26493 | 4.26018 | 30446 ft | 422 kts | 207° |
| 2026-05-07 17:17 | 51.21107 | 4.21904 | 30552 ft | 436 kts | 207° |
| 2026-05-07 17:18 | 51.15548 | 4.17772 | 30793 ft | 445 kts | 203° |
| 2026-05-07 17:18 | 51.12631 | 4.16080 | 31078 ft | 446 kts | 200° |
| 2026-05-07 17:18 | 51.09690 | 4.14525 | 31446 ft | 444 kts | 200° |
| 2026-05-07 17:19 | 51.06761 | 4.13002 | 31797 ft | 443 kts | 200° |
| 2026-05-07 17:19 | 51.03835 | 4.11461 | 32088 ft | 443 kts | 200° |
| 2026-05-07 17:19 | 51.00918 | 4.09896 | 32363 ft | 443 kts | 200° |
| 2026-05-07 17:19 | 50.98043 | 4.08335 | 32660 ft | 442 kts | 200° |
| 2026-05-07 17:20 | 50.95134 | 4.06746 | 32973 ft | 441 kts | 200° |
| 2026-05-07 17:20 | 50.92236 | 4.05165 | 33275 ft | 441 kts | 200° |
| 2026-05-07 17:20 | 50.89335 | 4.03589 | 33549 ft | 441 kts | 200° |
| 2026-05-07 17:20 | 50.86447 | 4.01964 | 33825 ft | 440 kts | 202° |
| 2026-05-07 17:21 | 50.83607 | 4.00192 | 34098 ft | 439 kts | 204° |
| 2026-05-07 17:21 | 50.80875 | 3.98413 | 34335 ft | 438 kts | 204° |
| 2026-05-07 17:21 | 50.78066 | 3.96568 | 34568 ft | 437 kts | 204° |
| 2026-05-07 17:21 | 50.75250 | 3.94728 | 34765 ft | 438 kts | 204° |
| 2026-05-07 17:22 | 50.72432 | 3.92904 | 34958 ft | 438 kts | 204° |
| 2026-05-07 17:22 | 50.69601 | 3.91085 | 35062 ft | 440 kts | 204° |
| 2026-05-07 17:22 | 50.63897 | 3.87443 | 35064 ft | 443 kts | 204° |
| 2026-05-07 17:23 | 50.58208 | 3.83826 | 35041 ft | 438 kts | 204° |
| 2026-05-07 17:23 | 50.52621 | 3.80137 | 35057 ft | 434 kts | 205° |
| 2026-05-07 17:24 | 50.47076 | 3.76323 | 35072 ft | 438 kts | 205° |
| 2026-05-07 17:24 | 50.41439 | 3.72451 | 35073 ft | 446 kts | 205° |
| 2026-05-07 17:25 | 50.35731 | 3.68564 | 35058 ft | 448 kts | 205° |
| 2026-05-07 17:25 | 50.30039 | 3.64709 | 35058 ft | 449 kts | 205° |
| 2026-05-07 17:26 | 50.24294 | 3.60830 | 35053 ft | 450 kts | 205° |
| 2026-05-07 17:26 | 50.18545 | 3.56958 | 35055 ft | 450 kts | 205° |
| 2026-05-07 17:27 | 50.12792 | 3.53092 | 35042 ft | 450 kts | 205° |
| 2026-05-07 17:27 | 50.07042 | 3.49237 | 35046 ft | 449 kts | 205° |
| 2026-05-07 17:28 | 50.02230 | 3.46020 | 35050 ft | 449 kts | 205° |
| 2026-05-07 17:28 | 49.96499 | 3.42197 | 35048 ft | 449 kts | 205° |
| 2026-05-07 17:29 | 49.90761 | 3.38378 | 35037 ft | 449 kts | 205° |
| 2026-05-07 17:29 | 49.85064 | 3.34597 | 35043 ft | 448 kts | 205° |
| 2026-05-07 17:30 | 49.79331 | 3.30802 | 35041 ft | 448 kts | 205° |
| 2026-05-07 17:30 | 49.73601 | 3.27018 | 35043 ft | 448 kts | 205° |
| 2026-05-07 17:31 | 49.67874 | 3.23244 | 35028 ft | 447 kts | 205° |
| 2026-05-07 17:31 | 49.62148 | 3.19480 | 35037 ft | 447 kts | 205° |
| 2026-05-07 17:32 | 49.56425 | 3.15725 | 35041 ft | 447 kts | 205° |
| 2026-05-07 17:32 | 49.50704 | 3.11984 | 35050 ft | 447 kts | 205° |
| 2026-05-07 17:33 | 49.45281 | 3.07430 | 35059 ft | 443 kts | 215° |
| 2026-05-07 17:33 | 49.40159 | 3.02139 | 35044 ft | 442 kts | 215° |
| 2026-05-07 17:34 | 49.37734 | 2.99639 | 35025 ft | 431 kts | 215° |
| 2026-05-07 17:34 | 49.35233 | 2.97078 | 35046 ft | 434 kts | 215° |
| 2026-05-07 17:34 | 49.30158 | 2.91924 | 35051 ft | 442 kts | 215° |
| 2026-05-07 17:35 | 49.24995 | 2.86718 | 35037 ft | 447 kts | 214° |
| 2026-05-07 17:35 | 49.19789 | 2.81484 | 35042 ft | 448 kts | 214° |
| 2026-05-07 17:36 | 49.14572 | 2.76251 | 35043 ft | 449 kts | 214° |
| 2026-05-07 17:36 | 49.09354 | 2.71027 | 35048 ft | 449 kts | 214° |
| 2026-05-07 17:37 | 49.04135 | 2.65814 | 35034 ft | 448 kts | 214° |
| 2026-05-07 17:37 | 48.98935 | 2.60630 | 35045 ft | 447 kts | 214° |
| 2026-05-07 17:38 | 48.93732 | 2.55465 | 35049 ft | 446 kts | 214° |
| 2026-05-07 17:38 | 48.88538 | 2.50325 | 35022 ft | 445 kts | 214° |
| 2026-05-07 17:39 | 48.83354 | 2.45200 | 35023 ft | 444 kts | 214° |
| 2026-05-07 17:39 | 48.78175 | 2.40087 | 35021 ft | 444 kts | 214° |
| 2026-05-07 17:40 | 48.72995 | 2.34985 | 35025 ft | 444 kts | 214° |
| 2026-05-07 17:40 | 48.67815 | 2.29893 | 35023 ft | 444 kts | 214° |
| 2026-05-07 17:41 | 48.62637 | 2.24815 | 35011 ft | 444 kts | 214° |
| 2026-05-07 17:41 | 48.57353 | 2.20006 | 35013 ft | 445 kts | 206° |
| 2026-05-07 17:42 | 48.51419 | 2.17285 | 35018 ft | 448 kts | 193° |
| 2026-05-07 17:42 | 48.45294 | 2.15430 | 35014 ft | 449 kts | 193° |
| 2026-05-07 17:43 | 48.39225 | 2.13519 | 34995 ft | 448 kts | 194° |
| 2026-05-07 17:43 | 48.33089 | 2.11543 | 35006 ft | 448 kts | 194° |
| 2026-05-07 17:44 | 48.26900 | 2.10366 | 35009 ft | 452 kts | 181° |
| 2026-05-07 17:44 | 48.20671 | 2.11559 | 35011 ft | 455 kts | 173° |
| 2026-05-07 17:45 | 48.14374 | 2.12994 | 35009 ft | 455 kts | 175° |
| 2026-05-07 17:45 | 48.08090 | 2.13714 | 35018 ft | 452 kts | 181° |
| 2026-05-07 17:46 | 48.01843 | 2.13989 | 35018 ft | 452 kts | 181° |
| 2026-05-07 17:46 | 47.95560 | 2.14276 | 35018 ft | 452 kts | 181° |
| 2026-05-07 17:47 | 47.89265 | 2.14617 | 35023 ft | 453 kts | 181° |
| 2026-05-07 17:47 | 47.82969 | 2.14982 | 35021 ft | 453 kts | 181° |
| 2026-05-07 17:48 | 47.76676 | 2.15349 | 34981 ft | 452 kts | 181° |
| 2026-05-07 17:48 | 47.70388 | 2.15714 | 34991 ft | 452 kts | 181° |
| 2026-05-07 17:49 | 47.64104 | 2.16075 | 34989 ft | 452 kts | 181° |
| 2026-05-07 17:49 | 47.57814 | 2.16436 | 34988 ft | 452 kts | 181° |
| 2026-05-07 17:50 | 47.51536 | 2.16796 | 34989 ft | 451 kts | 181° |
| 2026-05-07 17:50 | 47.45256 | 2.17154 | 34991 ft | 451 kts | 181° |
| 2026-05-07 17:51 | 47.38983 | 2.17511 | 34986 ft | 451 kts | 181° |
| 2026-05-07 17:51 | 47.32711 | 2.17867 | 34985 ft | 451 kts | 181° |
| 2026-05-07 17:52 | 47.26445 | 2.18221 | 34990 ft | 450 kts | 181° |
| 2026-05-07 17:52 | 47.20185 | 2.18573 | 34987 ft | 450 kts | 181° |
| 2026-05-07 17:53 | 47.13926 | 2.18924 | 34981 ft | 450 kts | 181° |
| 2026-05-07 17:53 | 47.07733 | 2.19961 | 34987 ft | 456 kts | 169° |
| 2026-05-07 17:54 | 47.01751 | 2.23231 | 34996 ft | 460 kts | 161° |
| 2026-05-07 17:54 | 46.95833 | 2.26797 | 34986 ft | 460 kts | 162° |
| 2026-05-07 17:55 | 46.89897 | 2.30312 | 34989 ft | 460 kts | 162° |
| 2026-05-07 17:55 | 46.83954 | 2.33778 | 34981 ft | 459 kts | 162° |
| 2026-05-07 17:56 | 46.78014 | 2.37219 | 34982 ft | 459 kts | 162° |
| 2026-05-07 17:56 | 46.72080 | 2.40649 | 34987 ft | 459 kts | 162° |
| 2026-05-07 17:57 | 46.67151 | 2.43493 | 34976 ft | 459 kts | 162° |
| 2026-05-07 17:57 | 46.60211 | 2.47489 | 34981 ft | 459 kts | 162° |
| 2026-05-07 17:58 | 46.54270 | 2.50900 | 34981 ft | 459 kts | 162° |
| 2026-05-07 17:58 | 46.48325 | 2.54305 | 34980 ft | 459 kts | 162° |
| 2026-05-07 17:59 | 46.42378 | 2.57704 | 34986 ft | 459 kts | 162° |
| 2026-05-07 17:59 | 46.36428 | 2.61094 | 34974 ft | 460 kts | 163° |
| 2026-05-07 18:00 | 46.30476 | 2.64476 | 34978 ft | 459 kts | 162° |
| 2026-05-07 18:00 | 46.24532 | 2.67855 | 34981 ft | 459 kts | 162° |
| 2026-05-07 18:01 | 46.18587 | 2.71223 | 34977 ft | 459 kts | 162° |
| 2026-05-07 18:01 | 46.12649 | 2.74577 | 34964 ft | 458 kts | 162° |
| 2026-05-07 18:02 | 46.03788 | 2.79564 | 34968 ft | 458 kts | 162° |
| 2026-05-07 18:03 | 45.97903 | 2.82851 | 34972 ft | 457 kts | 163° |
| 2026-05-07 18:03 | 45.91937 | 2.86014 | 34985 ft | 457 kts | 163° |
| 2026-05-07 18:04 | 45.85964 | 2.89150 | 34986 ft | 457 kts | 163° |
| 2026-05-07 18:04 | 45.79993 | 2.92302 | 34986 ft | 457 kts | 163° |
| 2026-05-07 18:05 | 45.73939 | 2.94945 | 34989 ft | 451 kts | 174° |
| 2026-05-07 18:05 | 45.67728 | 2.95265 | 34984 ft | 446 kts | 185° |
| 2026-05-07 18:06 | 45.61531 | 2.95018 | 34972 ft | 446 kts | 185° |
| 2026-05-07 18:06 | 45.55329 | 2.94808 | 34975 ft | 446 kts | 184° |
| 2026-05-07 18:07 | 45.49129 | 2.94631 | 34972 ft | 445 kts | 184° |
| 2026-05-07 18:07 | 45.42936 | 2.94465 | 34974 ft | 445 kts | 184° |
| 2026-05-07 18:08 | 45.36740 | 2.94300 | 34972 ft | 445 kts | 184° |
| 2026-05-07 18:08 | 45.30549 | 2.94134 | 34968 ft | 445 kts | 184° |
| 2026-05-07 18:09 | 45.24360 | 2.93968 | 34973 ft | 445 kts | 184° |
| 2026-05-07 18:09 | 45.18169 | 2.93801 | 34966 ft | 445 kts | 184° |
| 2026-05-07 18:10 | 45.11976 | 2.93635 | 34966 ft | 444 kts | 184° |
| 2026-05-07 18:10 | 45.05799 | 2.93470 | 34969 ft | 444 kts | 184° |
| 2026-05-07 18:11 | 44.99637 | 2.93305 | 34965 ft | 443 kts | 184° |
| 2026-05-07 18:11 | 44.93468 | 2.93138 | 34962 ft | 443 kts | 184° |
| 2026-05-07 18:12 | 44.87303 | 2.92972 | 34965 ft | 443 kts | 184° |
| 2026-05-07 18:12 | 44.81143 | 2.92725 | 34968 ft | 442 kts | 186° |
| 2026-05-07 18:13 | 44.76043 | 2.92343 | 34970 ft | 442 kts | 186° |
| 2026-05-07 18:13 | 44.69904 | 2.91851 | 34961 ft | 442 kts | 186° |
| 2026-05-07 18:14 | 44.62767 | 2.91307 | 34964 ft | 442 kts | 186° |
| 2026-05-07 18:14 | 44.57616 | 2.90929 | 34949 ft | 442 kts | 186° |
| 2026-05-07 18:15 | 44.51478 | 2.90484 | 34956 ft | 442 kts | 186° |
| 2026-05-07 18:15 | 44.45343 | 2.90039 | 34964 ft | 441 kts | 186° |
| 2026-05-07 18:16 | 44.39218 | 2.89596 | 34959 ft | 441 kts | 186° |
| 2026-05-07 18:16 | 44.33096 | 2.89153 | 34951 ft | 440 kts | 186° |
| 2026-05-07 18:17 | 44.27020 | 2.88714 | 34959 ft | 440 kts | 186° |
| 2026-05-07 18:17 | 44.20911 | 2.88274 | 34961 ft | 440 kts | 186° |
| 2026-05-07 18:18 | 44.14803 | 2.87834 | 34960 ft | 439 kts | 186° |
| 2026-05-07 18:18 | 44.08705 | 2.87396 | 34954 ft | 439 kts | 186° |
| 2026-05-07 18:19 | 44.02613 | 2.86960 | 34953 ft | 438 kts | 186° |
| 2026-05-07 18:19 | 43.96535 | 2.86524 | 34965 ft | 437 kts | 186° |
| 2026-05-07 18:20 | 43.90471 | 2.86090 | 34969 ft | 436 kts | 186° |
| 2026-05-07 18:20 | 43.84417 | 2.85656 | 34958 ft | 435 kts | 186° |
| 2026-05-07 18:21 | 43.78377 | 2.85229 | 34963 ft | 434 kts | 186° |
| 2026-05-07 18:21 | 43.72350 | 2.85174 | 34964 ft | 432 kts | 183° |
| 2026-05-07 18:22 | 43.66344 | 2.85331 | 34964 ft | 431 kts | 183° |
| 2026-05-07 18:22 | 43.60354 | 2.85468 | 34970 ft | 430 kts | 184° |
| 2026-05-07 18:23 | 43.54394 | 2.85572 | 34981 ft | 426 kts | 184° |
| 2026-05-07 18:23 | 43.48472 | 2.85659 | 34974 ft | 425 kts | 184° |
| 2026-05-07 18:24 | 43.42572 | 2.85740 | 34969 ft | 424 kts | 184° |
| 2026-05-07 18:24 | 43.36687 | 2.85828 | 34966 ft | 422 kts | 185° |
| 2026-05-07 18:25 | 43.30827 | 2.85914 | 34951 ft | 420 kts | 185° |
| 2026-05-07 18:25 | 43.24985 | 2.85998 | 34949 ft | 419 kts | 185° |
| 2026-05-07 18:26 | 43.19157 | 2.86081 | 34944 ft | 419 kts | 185° |
| 2026-05-07 18:26 | 43.13341 | 2.86165 | 34955 ft | 418 kts | 185° |
| 2026-05-07 18:27 | 43.07571 | 2.86248 | 34959 ft | 417 kts | 185° |
| 2026-05-07 18:27 | 43.01762 | 2.86330 | 34958 ft | 418 kts | 185° |
| 2026-05-07 18:28 | 42.95961 | 2.86412 | 34964 ft | 417 kts | 184° |
| 2026-05-07 18:28 | 42.90162 | 2.86495 | 34967 ft | 416 kts | 184° |
| 2026-05-07 18:29 | 42.84374 | 2.86575 | 34965 ft | 416 kts | 184° |
| 2026-05-07 18:29 | 42.78587 | 2.86655 | 34964 ft | 416 kts | 184° |
| 2026-05-07 18:30 | 42.72814 | 2.86561 | 34967 ft | 412 kts | 189° |
| 2026-05-07 18:30 | 42.67108 | 2.85859 | 34967 ft | 412 kts | 190° |
| 2026-05-07 18:31 | 42.61403 | 2.85125 | 34969 ft | 412 kts | 189° |
| 2026-05-07 18:31 | 42.55692 | 2.84437 | 34965 ft | 412 kts | 189° |